sensor_id;sensor_type;location;lat;lon;timestamp;P1;durP1;ratioP1;P2;durP2;ratioP2
6775;SDS011;3425;51.376;5.222;2024-01-27T00:00:36;13.88;;;13.07;;
6775;SDS011;3425;51.376;5.222;2024-01-27T00:03:04;11.77;;;11.27;;
6775;SDS011;3425;51.376;5.222;2024-01-27T00:05:31;13.43;;;12.75;;
6775;SDS011;3425;51.376;5.222;2024-01-27T00:07:58;15.80;;;15.00;;
6775;SDS011;3425;51.376;5.222;2024-01-27T00:10:26;22.17;;;20.50;;
6775;SDS011;3425;51.376;5.222;2024-01-27T00:12:53;13.10;;;12.50;;
6775;SDS011;3425;51.376;5.222;2024-01-27T00:15:20;13.00;;;12.40;;
6775;SDS011;3425;51.376;5.222;2024-01-27T00:17:48;21.17;;;20.08;;
6775;SDS011;3425;51.376;5.222;2024-01-27T00:20:15;20.40;;;19.30;;
6775;SDS011;3425;51.376;5.222;2024-01-27T00:22:43;16.13;;;15.30;;
6775;SDS011;3425;51.376;5.222;2024-01-27T00:25:10;17.52;;;16.63;;
6775;SDS011;3425;51.376;5.222;2024-01-27T00:27:37;14.50;;;13.80;;
6775;SDS011;3425;51.376;5.222;2024-01-27T00:30:05;12.85;;;12.25;;
6775;SDS011;3425;51.376;5.222;2024-01-27T00:32:34;14.85;;;14.15;;
6775;SDS011;3425;51.376;5.222;2024-01-27T00:35:01;14.65;;;13.95;;
6775;SDS011;3425;51.376;5.222;2024-01-27T00:37:29;13.93;;;13.23;;
6775;SDS011;3425;51.376;5.222;2024-01-27T00:39:56;16.23;;;15.13;;
6775;SDS011;3425;51.376;5.222;2024-01-27T00:42:23;15.02;;;14.32;;
6775;SDS011;3425;51.376;5.222;2024-01-27T00:44:51;14.30;;;13.60;;
6775;SDS011;3425;51.376;5.222;2024-01-27T00:47:19;12.68;;;12.02;;
6775;SDS011;3425;51.376;5.222;2024-01-27T00:49:46;14.18;;;13.48;;
6775;SDS011;3425;51.376;5.222;2024-01-27T00:52:15;14.52;;;13.52;;
6775;SDS011;3425;51.376;5.222;2024-01-27T00:54:42;12.00;;;11.43;;
6775;SDS011;3425;51.376;5.222;2024-01-27T00:57:09;12.25;;;11.63;;
6775;SDS011;3425;51.376;5.222;2024-01-27T00:59:36;14.13;;;13.32;;
6775;SDS011;3425;51.376;5.222;2024-01-27T01:02:05;12.95;;;12.35;;
6775;SDS011;3425;51.376;5.222;2024-01-27T01:04:32;14.35;;;13.65;;
6775;SDS011;3425;51.376;5.222;2024-01-27T01:06:59;11.57;;;11.07;;
6775;SDS011;3425;51.376;5.222;2024-01-27T01:09:27;11.55;;;11.00;;
6775;SDS011;3425;51.376;5.222;2024-01-27T01:11:54;17.80;;;16.30;;
6775;SDS011;3425;51.376;5.222;2024-01-27T01:14:22;22.13;;;20.65;;
6775;SDS011;3425;51.376;5.222;2024-01-27T01:16:49;19.30;;;18.30;;
6775;SDS011;3425;51.376;5.222;2024-01-27T01:19:17;19.02;;;18.10;;
6775;SDS011;3425;51.376;5.222;2024-01-27T01:21:44;17.95;;;17.05;;
6775;SDS011;3425;51.376;5.222;2024-01-27T01:24:12;19.60;;;18.60;;
6775;SDS011;3425;51.376;5.222;2024-01-27T01:26:39;18.42;;;17.52;;
6775;SDS011;3425;51.376;5.222;2024-01-27T01:29:07;16.42;;;15.63;;
6775;SDS011;3425;51.376;5.222;2024-01-27T01:31:34;18.75;;;17.85;;
6775;SDS011;3425;51.376;5.222;2024-01-27T01:34:01;18.08;;;17.17;;
6775;SDS011;3425;51.376;5.222;2024-01-27T01:36:29;15.60;;;14.70;;
6775;SDS011;3425;51.376;5.222;2024-01-27T01:38:56;17.38;;;16.33;;
6775;SDS011;3425;51.376;5.222;2024-01-27T01:41:24;16.50;;;15.70;;
6775;SDS011;3425;51.376;5.222;2024-01-27T01:43:52;16.92;;;16.02;;
6775;SDS011;3425;51.376;5.222;2024-01-27T01:46:21;15.63;;;14.82;;
6775;SDS011;3425;51.376;5.222;2024-01-27T01:48:50;17.35;;;16.02;;
6775;SDS011;3425;51.376;5.222;2024-01-27T01:51:17;40.25;;;21.27;;
6775;SDS011;3425;51.376;5.222;2024-01-27T01:53:45;21.20;;;20.10;;
6775;SDS011;3425;51.376;5.222;2024-01-27T01:56:17;15.75;;;14.95;;
6775;SDS011;3425;51.376;5.222;2024-01-27T01:58:45;15.50;;;14.70;;
6775;SDS011;3425;51.376;5.222;2024-01-27T02:01:13;17.38;;;16.40;;
6775;SDS011;3425;51.376;5.222;2024-01-27T02:03:51;14.20;;;13.50;;
6775;SDS011;3425;51.376;5.222;2024-01-27T02:06:21;14.38;;;13.65;;
6775;SDS011;3425;51.376;5.222;2024-01-27T02:08:51;14.80;;;14.00;;
6775;SDS011;3425;51.376;5.222;2024-01-27T02:11:18;15.00;;;14.30;;
6775;SDS011;3425;51.376;5.222;2024-01-27T02:13:46;17.00;;;16.20;;
6775;SDS011;3425;51.376;5.222;2024-01-27T02:16:14;14.52;;;13.82;;
6775;SDS011;3425;51.376;5.222;2024-01-27T02:18:44;12.50;;;11.90;;
6775;SDS011;3425;51.376;5.222;2024-01-27T02:21:11;14.93;;;14.13;;
6775;SDS011;3425;51.376;5.222;2024-01-27T02:23:42;18.42;;;17.45;;
6775;SDS011;3425;51.376;5.222;2024-01-27T02:26:09;14.07;;;13.38;;
6775;SDS011;3425;51.376;5.222;2024-01-27T02:28:36;12.43;;;11.82;;
6775;SDS011;3425;51.376;5.222;2024-01-27T02:31:04;13.93;;;13.25;;
6775;SDS011;3425;51.376;5.222;2024-01-27T02:33:31;15.82;;;15.02;;
6775;SDS011;3425;51.376;5.222;2024-01-27T02:35:59;16.40;;;15.38;;
6775;SDS011;3425;51.376;5.222;2024-01-27T02:38:26;16.85;;;16.05;;
6775;SDS011;3425;51.376;5.222;2024-01-27T02:40:53;22.40;;;21.20;;
6775;SDS011;3425;51.376;5.222;2024-01-27T02:43:22;18.98;;;18.08;;
6775;SDS011;3425;51.376;5.222;2024-01-27T02:45:49;20.80;;;19.77;;
6775;SDS011;3425;51.376;5.222;2024-01-27T02:48:17;20.83;;;19.17;;
6775;SDS011;3425;51.376;5.222;2024-01-27T02:50:46;17.10;;;16.30;;
6775;SDS011;3425;51.376;5.222;2024-01-27T02:53:14;21.80;;;20.70;;
6775;SDS011;3425;51.376;5.222;2024-01-27T02:55:41;22.42;;;20.88;;
6775;SDS011;3425;51.376;5.222;2024-01-27T02:58:11;21.48;;;20.08;;
6775;SDS011;3425;51.376;5.222;2024-01-27T03:00:38;22.60;;;21.40;;
6775;SDS011;3425;51.376;5.222;2024-01-27T03:03:08;21.73;;;20.63;;
6775;SDS011;3425;51.376;5.222;2024-01-27T03:05:36;21.95;;;20.77;;
6775;SDS011;3425;51.376;5.222;2024-01-27T03:08:03;25.25;;;23.75;;
6775;SDS011;3425;51.376;5.222;2024-01-27T03:10:31;22.10;;;21.00;;
6775;SDS011;3425;51.376;5.222;2024-01-27T03:12:58;18.92;;;17.92;;
6775;SDS011;3425;51.376;5.222;2024-01-27T03:15:27;22.30;;;21.20;;
6775;SDS011;3425;51.376;5.222;2024-01-27T03:17:54;23.60;;;22.40;;
6775;SDS011;3425;51.376;5.222;2024-01-27T03:20:22;23.40;;;22.20;;
6775;SDS011;3425;51.376;5.222;2024-01-27T03:22:50;23.25;;;21.73;;
6775;SDS011;3425;51.376;5.222;2024-01-27T03:25:17;20.95;;;19.85;;
6775;SDS011;3425;51.376;5.222;2024-01-27T03:27:44;22.95;;;21.75;;
6775;SDS011;3425;51.376;5.222;2024-01-27T03:30:12;22.67;;;21.48;;
6775;SDS011;3425;51.376;5.222;2024-01-27T03:32:40;21.17;;;20.08;;
6775;SDS011;3425;51.376;5.222;2024-01-27T03:35:08;23.25;;;22.05;;
6775;SDS011;3425;51.376;5.222;2024-01-27T03:37:35;24.55;;;23.25;;
6775;SDS011;3425;51.376;5.222;2024-01-27T03:40:03;21.65;;;20.45;;
6775;SDS011;3425;51.376;5.222;2024-01-27T03:42:30;18.50;;;17.60;;
6775;SDS011;3425;51.376;5.222;2024-01-27T03:44:58;22.40;;;21.20;;
6775;SDS011;3425;51.376;5.222;2024-01-27T03:47:26;22.58;;;21.38;;
6775;SDS011;3425;51.376;5.222;2024-01-27T03:49:53;22.40;;;21.23;;
6775;SDS011;3425;51.376;5.222;2024-01-27T03:52:21;21.70;;;20.60;;
6775;SDS011;3425;51.376;5.222;2024-01-27T03:54:48;23.20;;;22.00;;
6775;SDS011;3425;51.376;5.222;2024-01-27T03:57:16;23.13;;;21.92;;
6775;SDS011;3425;51.376;5.222;2024-01-27T03:59:43;23.92;;;22.70;;
6775;SDS011;3425;51.376;5.222;2024-01-27T04:02:11;24.70;;;23.30;;
6775;SDS011;3425;51.376;5.222;2024-01-27T04:04:38;25.77;;;24.38;;
6775;SDS011;3425;51.376;5.222;2024-01-27T04:07:05;26.83;;;25.33;;
6775;SDS011;3425;51.376;5.222;2024-01-27T04:09:36;25.95;;;24.55;;
6775;SDS011;3425;51.376;5.222;2024-01-27T04:12:04;24.15;;;22.85;;
6775;SDS011;3425;51.376;5.222;2024-01-27T04:14:31;22.33;;;20.90;;
6775;SDS011;3425;51.376;5.222;2024-01-27T04:16:59;23.40;;;22.20;;
6775;SDS011;3425;51.376;5.222;2024-01-27T04:19:26;25.30;;;23.92;;
6775;SDS011;3425;51.376;5.222;2024-01-27T04:21:53;23.90;;;22.70;;
6775;SDS011;3425;51.376;5.222;2024-01-27T04:24:23;24.60;;;23.30;;
6775;SDS011;3425;51.376;5.222;2024-01-27T04:26:50;25.85;;;24.45;;
6775;SDS011;3425;51.376;5.222;2024-01-27T04:29:18;23.17;;;21.85;;
6775;SDS011;3425;51.376;5.222;2024-01-27T04:31:45;25.15;;;23.65;;
6775;SDS011;3425;51.376;5.222;2024-01-27T04:34:12;23.15;;;21.95;;
6775;SDS011;3425;51.376;5.222;2024-01-27T04:36:40;22.40;;;21.05;;
6775;SDS011;3425;51.376;5.222;2024-01-27T04:39:11;22.42;;;21.23;;
6775;SDS011;3425;51.376;5.222;2024-01-27T04:41:43;21.35;;;20.25;;
6775;SDS011;3425;51.376;5.222;2024-01-27T04:44:10;20.35;;;19.15;;
6775;SDS011;3425;51.376;5.222;2024-01-27T04:46:38;20.50;;;19.30;;
6775;SDS011;3425;51.376;5.222;2024-01-27T04:49:05;25.00;;;23.70;;
6775;SDS011;3425;51.376;5.222;2024-01-27T04:51:33;23.73;;;22.42;;
6775;SDS011;3425;51.376;5.222;2024-01-27T04:54:01;23.20;;;22.00;;
6775;SDS011;3425;51.376;5.222;2024-01-27T04:56:28;28.40;;;26.80;;
6775;SDS011;3425;51.376;5.222;2024-01-27T04:58:56;26.02;;;24.63;;
6775;SDS011;3425;51.376;5.222;2024-01-27T05:01:23;25.17;;;23.50;;
6775;SDS011;3425;51.376;5.222;2024-01-27T05:03:50;24.25;;;22.95;;
6775;SDS011;3425;51.376;5.222;2024-01-27T05:06:18;23.80;;;22.50;;
6775;SDS011;3425;51.376;5.222;2024-01-27T05:08:45;24.50;;;23.20;;
6775;SDS011;3425;51.376;5.222;2024-01-27T05:11:15;22.58;;;21.40;;
6775;SDS011;3425;51.376;5.222;2024-01-27T05:13:43;29.42;;;24.55;;
6775;SDS011;3425;51.376;5.222;2024-01-27T05:16:11;25.35;;;23.98;;
6775;SDS011;3425;51.376;5.222;2024-01-27T05:18:38;23.73;;;22.50;;
6775;SDS011;3425;51.376;5.222;2024-01-27T05:21:05;25.23;;;23.92;;
6775;SDS011;3425;51.376;5.222;2024-01-27T05:23:33;20.50;;;19.50;;
6775;SDS011;3425;51.376;5.222;2024-01-27T05:26:00;24.02;;;22.77;;
6775;SDS011;3425;51.376;5.222;2024-01-27T05:28:27;26.27;;;24.33;;
6775;SDS011;3425;51.376;5.222;2024-01-27T05:30:55;27.98;;;26.48;;
6775;SDS011;3425;51.376;5.222;2024-01-27T05:33:22;30.45;;;28.75;;
6775;SDS011;3425;51.376;5.222;2024-01-27T05:35:50;31.35;;;29.17;;
6775;SDS011;3425;51.376;5.222;2024-01-27T05:38:17;30.15;;;28.45;;
6775;SDS011;3425;51.376;5.222;2024-01-27T05:40:44;28.70;;;26.65;;
6775;SDS011;3425;51.376;5.222;2024-01-27T05:43:12;28.10;;;26.50;;
6775;SDS011;3425;51.376;5.222;2024-01-27T05:45:40;25.60;;;24.20;;
6775;SDS011;3425;51.376;5.222;2024-01-27T05:48:07;26.67;;;25.17;;
6775;SDS011;3425;51.376;5.222;2024-01-27T05:50:35;23.73;;;22.50;;
6775;SDS011;3425;51.376;5.222;2024-01-27T05:53:02;24.40;;;23.10;;
6775;SDS011;3425;51.376;5.222;2024-01-27T05:55:30;22.42;;;21.23;;
6775;SDS011;3425;51.376;5.222;2024-01-27T05:57:57;26.75;;;25.25;;
6775;SDS011;3425;51.376;5.222;2024-01-27T06:00:24;28.63;;;27.02;;
6775;SDS011;3425;51.376;5.222;2024-01-27T06:02:52;24.38;;;23.02;;
6775;SDS011;3425;51.376;5.222;2024-01-27T06:05:19;22.33;;;21.20;;
6775;SDS011;3425;51.376;5.222;2024-01-27T06:07:47;22.08;;;20.98;;
6775;SDS011;3425;51.376;5.222;2024-01-27T06:10:15;22.38;;;21.17;;
6775;SDS011;3425;51.376;5.222;2024-01-27T06:12:48;24.60;;;23.20;;
6775;SDS011;3425;51.376;5.222;2024-01-27T06:15:15;26.73;;;25.05;;
6775;SDS011;3425;51.376;5.222;2024-01-27T06:17:42;26.05;;;24.58;;
6775;SDS011;3425;51.376;5.222;2024-01-27T06:20:10;26.60;;;25.20;;
6775;SDS011;3425;51.376;5.222;2024-01-27T06:22:38;27.85;;;25.10;;
6775;SDS011;3425;51.376;5.222;2024-01-27T06:25:07;23.02;;;21.83;;
6775;SDS011;3425;51.376;5.222;2024-01-27T06:27:37;22.95;;;21.75;;
6775;SDS011;3425;51.376;5.222;2024-01-27T06:30:04;24.75;;;23.45;;
6775;SDS011;3425;51.376;5.222;2024-01-27T06:32:32;25.85;;;24.15;;
6775;SDS011;3425;51.376;5.222;2024-01-27T06:34:59;24.60;;;23.15;;
6775;SDS011;3425;51.376;5.222;2024-01-27T06:37:27;22.30;;;21.17;;
6775;SDS011;3425;51.376;5.222;2024-01-27T06:39:54;20.10;;;19.10;;
6775;SDS011;3425;51.376;5.222;2024-01-27T06:42:22;23.30;;;22.00;;
6775;SDS011;3425;51.376;5.222;2024-01-27T06:44:49;21.50;;;20.40;;
6775;SDS011;3425;51.376;5.222;2024-01-27T06:47:16;24.35;;;23.05;;
6775;SDS011;3425;51.376;5.222;2024-01-27T06:49:44;24.92;;;23.63;;
6775;SDS011;3425;51.376;5.222;2024-01-27T06:52:11;23.98;;;22.73;;
6775;SDS011;3425;51.376;5.222;2024-01-27T06:54:38;25.92;;;24.45;;
6775;SDS011;3425;51.376;5.222;2024-01-27T06:57:19;24.55;;;23.20;;
6775;SDS011;3425;51.376;5.222;2024-01-27T06:59:47;26.10;;;24.70;;
6775;SDS011;3425;51.376;5.222;2024-01-27T07:02:22;25.80;;;24.40;;
6775;SDS011;3425;51.376;5.222;2024-01-27T07:04:50;26.45;;;25.05;;
6775;SDS011;3425;51.376;5.222;2024-01-27T07:07:18;28.30;;;26.75;;
6775;SDS011;3425;51.376;5.222;2024-01-27T07:09:50;28.67;;;27.08;;
6775;SDS011;3425;51.376;5.222;2024-01-27T07:12:17;28.52;;;26.88;;
6775;SDS011;3425;51.376;5.222;2024-01-27T07:14:44;25.67;;;24.27;;
6775;SDS011;3425;51.376;5.222;2024-01-27T07:17:12;25.98;;;24.58;;
6775;SDS011;3425;51.376;5.222;2024-01-27T07:19:39;28.20;;;26.60;;
6775;SDS011;3425;51.376;5.222;2024-01-27T07:22:07;26.65;;;25.17;;
6775;SDS011;3425;51.376;5.222;2024-01-27T07:24:34;28.17;;;26.30;;
6775;SDS011;3425;51.376;5.222;2024-01-27T07:27:01;27.27;;;25.77;;
6775;SDS011;3425;51.376;5.222;2024-01-27T07:29:30;28.30;;;26.70;;
6775;SDS011;3425;51.376;5.222;2024-01-27T07:32:00;25.65;;;24.25;;
6775;SDS011;3425;51.376;5.222;2024-01-27T07:34:27;20.80;;;19.25;;
6775;SDS011;3425;51.376;5.222;2024-01-27T07:36:55;18.50;;;17.50;;
6775;SDS011;3425;51.376;5.222;2024-01-27T07:39:22;17.30;;;16.40;;
6775;SDS011;3425;51.376;5.222;2024-01-27T07:41:49;19.60;;;18.60;;
6775;SDS011;3425;51.376;5.222;2024-01-27T07:44:17;20.17;;;18.88;;
6775;SDS011;3425;51.376;5.222;2024-01-27T07:46:45;26.33;;;24.73;;
6775;SDS011;3425;51.376;5.222;2024-01-27T07:49:13;34.58;;;32.47;;
6775;SDS011;3425;51.376;5.222;2024-01-27T07:51:41;33.60;;;31.60;;
6775;SDS011;3425;51.376;5.222;2024-01-27T07:54:09;34.30;;;32.22;;
6775;SDS011;3425;51.376;5.222;2024-01-27T07:56:37;22.10;;;20.90;;
6775;SDS011;3425;51.376;5.222;2024-01-27T07:59:04;21.73;;;20.42;;
6775;SDS011;3425;51.376;5.222;2024-01-27T08:01:32;21.90;;;20.63;;
6775;SDS011;3425;51.376;5.222;2024-01-27T08:03:59;21.95;;;20.75;;
6775;SDS011;3425;51.376;5.222;2024-01-27T08:06:28;19.00;;;18.00;;
6775;SDS011;3425;51.376;5.222;2024-01-27T08:08:56;18.05;;;17.00;;
6775;SDS011;3425;51.376;5.222;2024-01-27T08:11:24;17.27;;;15.93;;
6775;SDS011;3425;51.376;5.222;2024-01-27T08:13:51;14.90;;;14.10;;
6775;SDS011;3425;51.376;5.222;2024-01-27T08:16:19;14.85;;;13.85;;
6775;SDS011;3425;51.376;5.222;2024-01-27T08:18:46;12.80;;;11.93;;
6775;SDS011;3425;51.376;5.222;2024-01-27T08:21:13;11.20;;;10.60;;
6775;SDS011;3425;51.376;5.222;2024-01-27T08:23:41;12.10;;;11.40;;
6775;SDS011;3425;51.376;5.222;2024-01-27T08:26:08;9.75;;;9.30;;
6775;SDS011;3425;51.376;5.222;2024-01-27T08:28:35;8.95;;;8.55;;
6775;SDS011;3425;51.376;5.222;2024-01-27T08:31:02;13.30;;;12.60;;
6775;SDS011;3425;51.376;5.222;2024-01-27T08:33:31;8.60;;;8.20;;
6775;SDS011;3425;51.376;5.222;2024-01-27T08:35:58;7.63;;;7.32;;
6775;SDS011;3425;51.376;5.222;2024-01-27T08:38:26;9.73;;;9.23;;
6775;SDS011;3425;51.376;5.222;2024-01-27T08:40:53;7.70;;;7.40;;
6775;SDS011;3425;51.376;5.222;2024-01-27T08:43:20;9.98;;;9.27;;
6775;SDS011;3425;51.376;5.222;2024-01-27T08:45:48;6.70;;;6.40;;
6775;SDS011;3425;51.376;5.222;2024-01-27T08:48:15;5.50;;;5.30;;
6775;SDS011;3425;51.376;5.222;2024-01-27T08:50:43;5.28;;;4.88;;
6775;SDS011;3425;51.376;5.222;2024-01-27T08:53:11;5.90;;;5.60;;
6775;SDS011;3425;51.376;5.222;2024-01-27T08:55:38;4.93;;;4.70;;
6775;SDS011;3425;51.376;5.222;2024-01-27T08:58:06;4.25;;;4.05;;
6775;SDS011;3425;51.376;5.222;2024-01-27T09:00:33;6.10;;;4.80;;
6775;SDS011;3425;51.376;5.222;2024-01-27T09:03:00;3.95;;;3.75;;
6775;SDS011;3425;51.376;5.222;2024-01-27T09:05:29;6.50;;;5.18;;
6775;SDS011;3425;51.376;5.222;2024-01-27T09:07:57;16.50;;;7.22;;
6775;SDS011;3425;51.376;5.222;2024-01-27T09:10:25;4.35;;;4.15;;
6775;SDS011;3425;51.376;5.222;2024-01-27T09:12:52;3.10;;;3.00;;
6775;SDS011;3425;51.376;5.222;2024-01-27T09:15:19;4.10;;;3.85;;
6775;SDS011;3425;51.376;5.222;2024-01-27T09:17:46;7.65;;;3.90;;
6775;SDS011;3425;51.376;5.222;2024-01-27T09:20:14;3.03;;;2.92;;
6775;SDS011;3425;51.376;5.222;2024-01-27T09:22:42;3.10;;;3.00;;
6775;SDS011;3425;51.376;5.222;2024-01-27T09:25:13;4.13;;;3.92;;
6775;SDS011;3425;51.376;5.222;2024-01-27T09:27:41;2.75;;;2.65;;
6775;SDS011;3425;51.376;5.222;2024-01-27T09:30:08;2.88;;;2.78;;
6775;SDS011;3425;51.376;5.222;2024-01-27T09:32:36;2.40;;;2.30;;
6775;SDS011;3425;51.376;5.222;2024-01-27T09:35:03;2.10;;;2.00;;
6775;SDS011;3425;51.376;5.222;2024-01-27T09:37:31;2.13;;;2.03;;
6775;SDS011;3425;51.376;5.222;2024-01-27T09:39:59;2.20;;;2.10;;
6775;SDS011;3425;51.376;5.222;2024-01-27T09:42:28;2.28;;;2.17;;
6775;SDS011;3425;51.376;5.222;2024-01-27T09:44:56;4.03;;;2.50;;
6775;SDS011;3425;51.376;5.222;2024-01-27T09:47:25;1.40;;;1.35;;
6775;SDS011;3425;51.376;5.222;2024-01-27T09:49:52;1.48;;;1.38;;
6775;SDS011;3425;51.376;5.222;2024-01-27T09:52:20;1.30;;;1.30;;
6775;SDS011;3425;51.376;5.222;2024-01-27T09:54:47;1.95;;;1.50;;
6775;SDS011;3425;51.376;5.222;2024-01-27T09:57:15;3.70;;;2.47;;
6775;SDS011;3425;51.376;5.222;2024-01-27T09:59:45;1.20;;;1.20;;
6775;SDS011;3425;51.376;5.222;2024-01-27T10:02:12;35.08;;;2.03;;
6775;SDS011;3425;51.376;5.222;2024-01-27T10:04:41;1.73;;;1.27;;
6775;SDS011;3425;51.376;5.222;2024-01-27T10:07:09;2.15;;;1.67;;
6775;SDS011;3425;51.376;5.222;2024-01-27T10:09:36;3.00;;;1.38;;
6775;SDS011;3425;51.376;5.222;2024-01-27T10:12:05;2.63;;;1.10;;
6775;SDS011;3425;51.376;5.222;2024-01-27T10:14:39;0.65;;;0.65;;
6775;SDS011;3425;51.376;5.222;2024-01-27T10:17:10;1.63;;;1.52;;
6775;SDS011;3425;51.376;5.222;2024-01-27T10:19:38;3.08;;;2.10;;
6775;SDS011;3425;51.376;5.222;2024-01-27T10:22:10;2.33;;;2.13;;
6775;SDS011;3425;51.376;5.222;2024-01-27T10:24:38;1.65;;;1.55;;
6775;SDS011;3425;51.376;5.222;2024-01-27T10:27:06;2.28;;;1.65;;
6775;SDS011;3425;51.376;5.222;2024-01-27T10:29:33;1.40;;;1.33;;
6775;SDS011;3425;51.376;5.222;2024-01-27T10:32:10;1.73;;;1.63;;
6775;SDS011;3425;51.376;5.222;2024-01-27T10:34:37;1.65;;;1.55;;
6775;SDS011;3425;51.376;5.222;2024-01-27T10:37:05;1.35;;;1.35;;
6775;SDS011;3425;51.376;5.222;2024-01-27T10:39:35;1.08;;;1.08;;
6775;SDS011;3425;51.376;5.222;2024-01-27T10:42:02;1.40;;;1.30;;
6775;SDS011;3425;51.376;5.222;2024-01-27T10:44:32;1.15;;;1.15;;
6775;SDS011;3425;51.376;5.222;2024-01-27T10:47:03;2.95;;;1.45;;
6775;SDS011;3425;51.376;5.222;2024-01-27T10:49:32;2.35;;;1.52;;
6775;SDS011;3425;51.376;5.222;2024-01-27T10:52:01;1.38;;;1.38;;
6775;SDS011;3425;51.376;5.222;2024-01-27T10:54:32;2.80;;;0.98;;
6775;SDS011;3425;51.376;5.222;2024-01-27T10:57:00;28.40;;;3.28;;
6775;SDS011;3425;51.376;5.222;2024-01-27T10:59:30;0.93;;;0.93;;
6775;SDS011;3425;51.376;5.222;2024-01-27T11:01:57;0.40;;;0.40;;
6775;SDS011;3425;51.376;5.222;2024-01-27T11:04:25;3.05;;;1.38;;
6775;SDS011;3425;51.376;5.222;2024-01-27T11:06:53;9.30;;;1.63;;
6775;SDS011;3425;51.376;5.222;2024-01-27T11:09:20;0.47;;;0.47;;
6775;SDS011;3425;51.376;5.222;2024-01-27T11:11:48;1.15;;;0.93;;
6775;SDS011;3425;51.376;5.222;2024-01-27T11:14:16;1.42;;;0.80;;
6775;SDS011;3425;51.376;5.222;2024-01-27T11:16:43;10.73;;;1.95;;
6775;SDS011;3425;51.376;5.222;2024-01-27T11:19:13;1.48;;;1.35;;
6775;SDS011;3425;51.376;5.222;2024-01-27T11:21:41;1.45;;;1.00;;
6775;SDS011;3425;51.376;5.222;2024-01-27T11:24:12;1.10;;;1.10;;
6775;SDS011;3425;51.376;5.222;2024-01-27T11:26:39;0.35;;;0.35;;
6775;SDS011;3425;51.376;5.222;2024-01-27T11:29:07;2.40;;;2.20;;
6775;SDS011;3425;51.376;5.222;2024-01-27T11:31:55;0.68;;;0.65;;
6775;SDS011;3425;51.376;5.222;2024-01-27T11:34:22;0.85;;;0.85;;
6775;SDS011;3425;51.376;5.222;2024-01-27T11:36:51;0.88;;;0.77;;
6775;SDS011;3425;51.376;5.222;2024-01-27T11:39:37;0.45;;;0.45;;
6775;SDS011;3425;51.376;5.222;2024-01-27T11:42:08;1.67;;;1.33;;
6775;SDS011;3425;51.376;5.222;2024-01-27T11:44:36;0.38;;;0.38;;
6775;SDS011;3425;51.376;5.222;2024-01-27T11:47:04;8.77;;;2.38;;
6775;SDS011;3425;51.376;5.222;2024-01-27T11:49:33;3.10;;;1.65;;
6775;SDS011;3425;51.376;5.222;2024-01-27T11:52:00;0.63;;;0.63;;
6775;SDS011;3425;51.376;5.222;2024-01-27T11:54:30;0.43;;;0.43;;
6775;SDS011;3425;51.376;5.222;2024-01-27T11:56:57;0.40;;;0.40;;
6775;SDS011;3425;51.376;5.222;2024-01-27T11:59:24;0.50;;;0.50;;
6775;SDS011;3425;51.376;5.222;2024-01-27T12:01:53;0.68;;;0.68;;
6775;SDS011;3425;51.376;5.222;2024-01-27T12:04:20;1.55;;;0.75;;
6775;SDS011;3425;51.376;5.222;2024-01-27T12:06:48;2.55;;;1.00;;
6775;SDS011;3425;51.376;5.222;2024-01-27T12:09:16;0.17;;;0.17;;
6775;SDS011;3425;51.376;5.222;2024-01-27T12:11:44;0.50;;;0.30;;
6775;SDS011;3425;51.376;5.222;2024-01-27T12:14:12;2.05;;;1.52;;
6775;SDS011;3425;51.376;5.222;2024-01-27T12:16:40;1.40;;;1.20;;
6775;SDS011;3425;51.376;5.222;2024-01-27T12:19:09;0.80;;;0.73;;
6775;SDS011;3425;51.376;5.222;2024-01-27T12:21:38;0.95;;;0.95;;
6775;SDS011;3425;51.376;5.222;2024-01-27T12:24:05;1.20;;;0.90;;
6775;SDS011;3425;51.376;5.222;2024-01-27T12:26:46;0.25;;;0.25;;
6775;SDS011;3425;51.376;5.222;2024-01-27T12:29:13;0.28;;;0.28;;
6775;SDS011;3425;51.376;5.222;2024-01-27T12:31:40;1.00;;;1.00;;
6775;SDS011;3425;51.376;5.222;2024-01-27T12:34:08;0.47;;;0.47;;
6775;SDS011;3425;51.376;5.222;2024-01-27T12:36:40;0.28;;;0.28;;
6775;SDS011;3425;51.376;5.222;2024-01-27T12:39:09;3.28;;;1.45;;
6775;SDS011;3425;51.376;5.222;2024-01-27T12:41:36;0.22;;;0.20;;
6775;SDS011;3425;51.376;5.222;2024-01-27T12:44:05;0.10;;;0.10;;
6775;SDS011;3425;51.376;5.222;2024-01-27T12:46:35;0.75;;;0.75;;
6775;SDS011;3425;51.376;5.222;2024-01-27T12:49:02;0.28;;;0.28;;
6775;SDS011;3425;51.376;5.222;2024-01-27T12:51:30;1.55;;;0.95;;
6775;SDS011;3425;51.376;5.222;2024-01-27T12:53:57;0.32;;;0.32;;
6775;SDS011;3425;51.376;5.222;2024-01-27T12:56:26;0.82;;;0.82;;
6775;SDS011;3425;51.376;5.222;2024-01-27T12:58:53;0.22;;;0.22;;
6775;SDS011;3425;51.376;5.222;2024-01-27T13:04:28;0.43;;;0.35;;
6775;SDS011;3425;51.376;5.222;2024-01-27T13:06:57;16.05;;;1.38;;
6775;SDS011;3425;51.376;5.222;2024-01-27T13:09:24;0.17;;;0.17;;
6775;SDS011;3425;51.376;5.222;2024-01-27T13:11:51;1.45;;;1.05;;
6775;SDS011;3425;51.376;5.222;2024-01-27T13:14:20;0.75;;;0.75;;
6775;SDS011;3425;51.376;5.222;2024-01-27T13:16:47;0.38;;;0.38;;
6775;SDS011;3425;51.376;5.222;2024-01-27T13:19:14;0.68;;;0.60;;
6775;SDS011;3425;51.376;5.222;2024-01-27T13:21:44;1.77;;;1.15;;
6775;SDS011;3425;51.376;5.222;2024-01-27T13:24:11;1.00;;;1.00;;
6775;SDS011;3425;51.376;5.222;2024-01-27T13:26:39;0.10;;;0.10;;
6775;SDS011;3425;51.376;5.222;2024-01-27T13:29:08;0.40;;;0.40;;
6775;SDS011;3425;51.376;5.222;2024-01-27T13:31:36;20.23;;;1.77;;
6775;SDS011;3425;51.376;5.222;2024-01-27T13:34:04;0.32;;;0.32;;
6775;SDS011;3425;51.376;5.222;2024-01-27T13:36:32;0.20;;;0.20;;
6775;SDS011;3425;51.376;5.222;2024-01-27T13:39:00;4.70;;;1.05;;
6775;SDS011;3425;51.376;5.222;2024-01-27T13:41:27;1.02;;;0.73;;
6775;SDS011;3425;51.376;5.222;2024-01-27T13:43:55;0.75;;;0.68;;
6775;SDS011;3425;51.376;5.222;2024-01-27T13:46:23;0.45;;;0.45;;
6775;SDS011;3425;51.376;5.222;2024-01-27T13:48:51;0.52;;;0.52;;
6775;SDS011;3425;51.376;5.222;2024-01-27T13:51:19;0.50;;;0.50;;
6775;SDS011;3425;51.376;5.222;2024-01-27T13:53:47;1.23;;;0.90;;
6775;SDS011;3425;51.376;5.222;2024-01-27T13:56:15;0.80;;;0.55;;
6775;SDS011;3425;51.376;5.222;2024-01-27T13:58:42;0.70;;;0.68;;
6775;SDS011;3425;51.376;5.222;2024-01-27T14:01:09;0.20;;;0.20;;
6775;SDS011;3425;51.376;5.222;2024-01-27T14:03:37;0.52;;;0.52;;
6775;SDS011;3425;51.376;5.222;2024-01-27T14:06:05;3.47;;;0.90;;
6775;SDS011;3425;51.376;5.222;2024-01-27T14:08:34;0.40;;;0.40;;
6775;SDS011;3425;51.376;5.222;2024-01-27T14:11:01;2.35;;;1.23;;
6775;SDS011;3425;51.376;5.222;2024-01-27T14:13:28;0.30;;;0.30;;
6775;SDS011;3425;51.376;5.222;2024-01-27T14:15:55;0.28;;;0.28;;
6775;SDS011;3425;51.376;5.222;2024-01-27T14:18:24;0.43;;;0.43;;
6775;SDS011;3425;51.376;5.222;2024-01-27T14:20:52;0.20;;;0.20;;
6775;SDS011;3425;51.376;5.222;2024-01-27T14:23:19;0.57;;;0.43;;
6775;SDS011;3425;51.376;5.222;2024-01-27T14:25:46;0.57;;;0.45;;
6775;SDS011;3425;51.376;5.222;2024-01-27T14:28:14;2.22;;;0.88;;
6775;SDS011;3425;51.376;5.222;2024-01-27T14:30:41;0.30;;;0.30;;
6775;SDS011;3425;51.376;5.222;2024-01-27T14:33:11;0.50;;;0.50;;
6775;SDS011;3425;51.376;5.222;2024-01-27T14:35:39;0.68;;;0.68;;
6775;SDS011;3425;51.376;5.222;2024-01-27T14:38:09;0.30;;;0.30;;
6775;SDS011;3425;51.376;5.222;2024-01-27T14:40:36;0.30;;;0.30;;
6775;SDS011;3425;51.376;5.222;2024-01-27T14:43:07;0.20;;;0.20;;
6775;SDS011;3425;51.376;5.222;2024-01-27T14:45:38;7.38;;;0.75;;
6775;SDS011;3425;51.376;5.222;2024-01-27T14:48:06;0.20;;;0.20;;
6775;SDS011;3425;51.376;5.222;2024-01-27T14:50:33;1.50;;;0.80;;
6775;SDS011;3425;51.376;5.222;2024-01-27T14:53:01;4.70;;;1.25;;
6775;SDS011;3425;51.376;5.222;2024-01-27T14:55:30;1.63;;;1.52;;
6775;SDS011;3425;51.376;5.222;2024-01-27T14:57:59;4.45;;;1.67;;
6775;SDS011;3425;51.376;5.222;2024-01-27T15:00:28;0.75;;;0.75;;
6775;SDS011;3425;51.376;5.222;2024-01-27T15:02:55;3.72;;;1.45;;
6775;SDS011;3425;51.376;5.222;2024-01-27T15:05:23;0.80;;;0.80;;
6775;SDS011;3425;51.376;5.222;2024-01-27T15:07:51;0.88;;;0.68;;